Latest Weather Observations for Norah Head

IDN60901

Issued at 2:05 pm EST Monday 22 September 2014 (issued every 10 minutes, with the page automatically refreshed every 10 minutes)

About weather observations | Map of Sydney area stations | Latest observations for Sydney area | Other Formats
Station Details ID: 061366 Name: NORAH HEAD AWS Lat: -33.28 Lon: 151.58 Height: 18.8 m
Data from the previous 72 hours. | See also: Recent months at Norah Head
Date/Time
EST
Tmp

°C
App
Tmp
°C
Dew
Point
°C
Rel
Hum
%
Delta-T

°C
Wind Press
QNH
hPa
Press
MSL
hPa
Rain
since
9 am
mm
Dir
 
Spd
km/h
Gust
km/h
Spd
kts
Gust
kts
22/02:00pm 19.0 16.6 10.0 56 4.8 SE 13 17 7 9 1029.3 1029.3 0.0
22/01:30pm 19.4 17.1 10.4 56 4.9 SE 13 17 7 9 1029.6 1029.6 0.0
22/01:00pm 19.8 17.1 10.5 55 5.0 SSE 15 19 8 10 1030.0 1030.0 0.0
22/12:30pm 20.2 18.4 10.9 55 5.1 SSE 11 15 6 8 1030.3 1030.3 0.0
22/12:00pm 19.9 17.7 10.9 56 4.9 SSE 13 15 7 8 1030.8 1030.8 0.0
22/11:30am 20.3 17.5 11.5 57 4.9 SSE 17 19 9 10 1031.2 1031.2 0.0
22/11:00am 19.3 16.8 11.1 59 4.4 S 15 19 8 10 1031.6 1031.6 0.0
22/10:30am 19.4 17.6 10.9 58 4.6 S 11 17 6 9 1032.0 1032.0 0.0
22/10:00am 19.3 17.6 11.1 59 4.4 S 11 15 6 8 1032.0 1032.0 0.0
22/09:30am 19.3 18.2 12.1 63 4.0 SSE 9 15 5 8 1032.0 1032.0 0.0
22/09:00am 17.4 17.0 12.5 73 2.7 SSW 6 9 3 5 1032.0 1032.0 1.8
22/08:30am 16.6 15.8 11.1 70 3.0 SSW 6 11 3 6 1032.0 1032.0 1.8
22/08:00am 16.2 15.1 12.0 76 2.3 SSW 9 13 5 7 1031.7 1031.7 1.8
22/07:30am 15.3 14.5 11.7 79 1.9 SSW 7 15 4 8 1031.4 1031.4 1.8
22/07:00am 14.3 13.1 11.5 83 1.5 WSW 9 13 5 7 1031.2 1031.2 1.8
22/06:30am 13.3 11.6 11.2 87 1.1 WSW 11 15 6 8 1030.9 1030.9 1.8
22/06:00am 12.6 10.4 10.8 89 0.9 W 13 15 7 8 1030.5 1030.5 1.8
22/05:30am 12.5 10.7 10.7 89 0.9 W 11 15 6 8 1030.0 1030.0 1.8
22/05:00am 12.6 10.8 10.8 89 0.9 WSW 11 15 6 8 1029.7 1029.7 1.8
22/04:30am 13.0 11.2 10.9 87 1.1 WSW 11 13 6 7 1029.3 1029.3 1.8
22/04:00am 13.7 12.3 10.9 83 1.5 SW 9 13 5 7 1029.1 1029.1 1.8
22/03:30am 13.0 11.1 10.5 85 1.3 WSW 11 13 6 7 1029.1 1029.1 1.8
22/03:00am 13.5 12.0 10.7 83 1.5 WSW 9 11 5 6 1029.2 1029.2 1.8
22/02:30am 13.3 11.7 10.3 82 1.6 W 9 11 5 6 1029.3 1029.3 1.8
22/02:00am 13.3 11.8 10.7 84 1.3 WSW 9 13 5 7 1029.4 1029.4 1.8
22/01:30am 13.8 13.3 10.6 81 1.7 SW 4 6 2 3 1029.5 1029.5 1.8
22/01:00am 13.7 12.8 10.7 82 1.6 SW 6 9 3 5 1029.8 1029.8 1.8
22/12:30am 14.4 14.6 10.6 78 2.0 CALM 0 2 0 1 1030.0 1030.0 1.8
22/12:00am 15.4 14.3 10.8 74 2.4 SSE 7 11 4 6 1030.0 1030.0 1.8
 
Date/Time
EST
Tmp

°C
App
Tmp
°C
Dew
Point
°C
Rel
Hum
%
Delta-T

°C
Wind Press
QNH
hPa
Press
MSL
hPa
Rain
since
9 am
mm
Dir
 
Spd
km/h
Gust
km/h
Spd
kts
Gust
kts
21/11:30pm 15.2 13.7 10.4 73 2.5 SE 9 13 5 7 1030.2 1030.2 1.8
21/11:00pm 15.4 13.6 10.8 74 2.4 SE 11 13 6 7 1030.1 1030.1 1.8
21/10:30pm 15.8 14.0 11.0 73 2.6 SE 11 15 6 8 1030.3 1030.3 1.8
21/10:00pm 16.1 15.2 11.3 73 2.6 ESE 7 13 4 7 1030.6 1030.6 1.8
21/09:30pm 16.3 14.9 10.8 70 2.9 E 9 11 5 6 1030.5 1030.5 1.8
21/09:00pm 16.1 14.0 11.1 72 2.7 ESE 13 15 7 8 1030.4 1030.4 1.8
21/08:30pm 16.4 14.0 11.3 72 2.7 E 15 19 8 10 1030.2 1030.2 1.8
21/08:00pm 16.4 13.9 11.1 71 2.8 E 15 19 8 10 1030.1 1030.1 1.8
21/07:30pm 16.3 13.8 11.2 72 2.7 ESE 15 19 8 10 1029.7 1029.7 1.8
21/07:00pm 16.4 13.6 11.3 72 2.7 ESE 17 20 9 11 1029.4 1029.4 1.8
21/06:30pm 16.3 13.9 11.5 73 2.6 ESE 15 19 8 10 1028.9 1028.9 1.8
21/06:00pm 16.2 13.3 10.9 71 2.8 ESE 17 20 9 11 1028.2 1028.2 1.8
21/05:30pm 16.1 13.1 10.6 70 2.9 SE 17 20 9 11 1028.0 1028.0 1.8
21/05:00pm 16.2 12.7 10.9 71 2.8 SE 20 26 11 14 1027.3 1027.3 1.8
21/04:30pm 16.6 13.4 11.1 70 3.0 SSE 19 22 10 12 1027.1 1027.1 1.8
21/04:00pm 17.2 14.4 11.2 68 3.2 SSE 17 20 9 11 1027.1 1027.1 1.8
21/03:30pm 17.5 16.0 11.8 69 3.1 SE 11 15 6 8 1027.4 1027.4 1.8
21/03:00pm 18.2 16.5 12.4 69 3.2 SSE 13 17 7 9 1027.4 1027.4 1.8
21/02:30pm 18.3 16.6 12.3 68 3.3 SSE 13 17 7 9 1027.7 1027.7 1.8
21/02:00pm 18.1 16.4 12.5 70 3.1 SE 13 17 7 9 1028.1 1028.1 1.8
21/01:30pm 17.8 14.2 12.9 73 2.7 S 24 30 13 16 1028.3 1028.3 1.8
21/01:00pm 17.3 13.9 12.6 74 2.6 S 22 30 12 16 1028.7 1028.7 1.8
21/12:30pm 16.7 13.7 12.5 76 2.3 S 20 26 11 14 1029.3 1029.3 1.8
21/12:00pm 17.3 14.2 13.4 78 2.2 S 22 28 12 15 1029.6 1029.6 1.6
21/11:30am 15.8 12.4 12.5 81 1.8 S 22 28 12 15 1029.9 1029.9 1.6
21/11:00am 15.2 13.8 13.4 89 1.0 SSE 13 24 7 13 1030.4 1030.4 1.6
21/10:30am 14.6 13.7 12.6 88 1.1 ESE 9 11 5 6 1030.5 1030.5 1.6
21/10:00am 14.7 14.6 12.0 84 1.4 SSE 4 6 2 3 1030.7 1030.7 1.2
21/09:30am 14.5 14.4 12.0 85 1.4 NW 4 9 2 5 1030.4 1030.4 0.0
21/09:00am 14.1 14.3 12.0 87 1.1 W 2 4 1 2 1030.2 1030.2 3.8
21/08:30am 13.3 11.7 11.5 89 1.0 NNW 11 17 6 9 1029.9 1029.9 3.8
21/08:00am 13.2 12.0 11.6 90 0.8 N 9 13 5 7 1029.7 1029.7 3.8
21/07:30am 12.5 11.1 10.9 90 0.8 W 9 15 5 8 1029.0 1029.0 3.8
21/07:00am 12.1 10.3 10.8 92 0.7 W 11 19 6 10 1028.6 1028.6 3.8
21/06:30am 12.3 10.6 11.2 93 0.6 W 11 17 6 9 1028.1 1028.1 3.8
21/06:00am 12.2 10.3 10.4 89 0.9 WSW 11 19 6 10 1027.8 1027.8 3.4
21/05:30am 11.6 9.9 9.7 88 1.0 W 9 13 5 7 1027.5 1027.5 3.4
21/05:00am 11.8 9.7 9.7 87 1.1 W 11 17 6 9 1027.3 1027.3 3.4
21/04:30am 11.8 9.3 9.7 87 1.1 W 13 19 7 10 1027.1 1027.1 3.2
21/04:00am 11.8 9.6 9.5 86 1.2 W 11 15 6 8 1026.9 1026.9 3.2
21/03:30am 11.6 9.4 9.3 86 1.2 W 11 17 6 9 1026.7 1026.7 3.2
21/03:00am 11.7 9.3 10.1 90 0.8 W 13 17 7 9 1026.9 1026.9 3.2
21/02:30am 12.0 9.7 10.6 91 0.7 W 13 15 7 8 1026.9 1026.9 3.2
21/02:00am 12.2 9.5 10.3 88 1.0 WSW 15 20 8 11 1027.3 1027.3 3.2
21/01:30am 11.9 9.8 9.8 87 1.1 W 11 17 6 9 1027.3 1027.3 3.2
21/01:00am 12.1 9.7 10.0 87 1.1 W 13 17 7 9 1027.5 1027.5 3.2
21/12:30am 12.0 10.1 10.4 90 0.8 W 11 17 6 9 1027.6 1027.6 3.0
21/12:00am 12.8 11.4 10.9 88 1.0 WSW 9 19 5 10 1027.8 1027.8 2.0
 
Date/Time
EST
Tmp

°C
App
Tmp
°C
Dew
Point
°C
Rel
Hum
%
Delta-T

°C
Wind Press
QNH
hPa
Press
MSL
hPa
Rain
since
9 am
mm
Dir
 
Spd
km/h
Gust
km/h
Spd
kts
Gust
kts
20/11:30pm 12.9 10.8 9.9 82 1.5 W 11 15 6 8 1027.6 1027.6 0.0
20/11:00pm 13.6 11.9 10.0 79 1.8 W 9 13 5 7 1027.6 1027.6 0.0
20/10:30pm 14.6 13.5 9.8 73 2.5 SW 6 11 3 6 1027.5 1027.5 0.0
20/10:00pm 16.3 13.9 9.9 66 3.3 S 13 20 7 11 1027.5 1027.5 0.0
20/09:30pm 16.2 12.8 10.5 69 3.0 S 19 22 10 12 1027.3 1027.3 0.0
20/09:00pm 15.9 11.8 10.0 68 3.1 S 22 26 12 14 1027.2 1027.2 0.0
20/08:30pm 15.7 11.3 9.1 65 3.4 S 22 26 12 14 1027.0 1027.0 0.0
20/08:00pm 15.8 10.8 9.7 67 3.2 S 26 32 14 17 1026.7 1026.7 0.0
20/07:30pm 15.9 11.0 10.0 68 3.1 S 26 32 14 17 1026.2 1026.2 0.0
20/07:00pm 15.7 10.4 9.8 68 3.1 S 28 32 15 17 1025.9 1025.9 0.0
20/06:30pm 15.8 10.7 10.6 71 2.8 SSE 28 33 15 18 1025.4 1025.4 0.0
20/06:00pm 15.8 9.8 10.1 69 3.0 S 32 39 17 21 1024.9 1024.8 0.0
20/05:30pm 15.7 9.5 9.4 66 3.3 S 32 41 17 22 1024.4 1024.3 0.0
20/05:00pm 15.9 9.7 9.3 65 3.4 S 32 37 17 20 1023.9 1023.8 0.0
20/04:30pm 16.1 9.9 9.3 64 3.5 S 32 39 17 21 1023.7 1023.6 0.0
20/04:00pm 16.4 10.3 9.8 65 3.4 S 32 37 17 20 1023.5 1023.4 0.0
20/03:30pm 16.6 10.4 10.0 65 3.5 S 33 37 18 20 1023.4 1023.3 0.0
20/03:00pm 16.8 10.8 10.2 65 3.5 S 32 37 17 20 1023.3 1023.2 0.0
20/02:30pm 17.0 11.0 10.1 64 3.6 S 32 37 17 20 1023.1 1023.0 0.0
20/02:00pm 17.3 11.5 10.9 66 3.4 S 32 37 17 20 1023.2 1023.1 0.0
20/01:30pm 17.3 11.3 10.2 63 3.8 S 32 39 17 21 1023.4 1023.3 0.0
20/01:00pm 17.5 12.0 10.4 63 3.8 S 30 37 16 20 1023.4 1023.3 0.0
20/12:30pm 17.9 13.8 11.5 66 3.5 S 24 32 13 17 1023.5 1023.4 0.0
20/12:00pm 17.8 14.5 10.9 64 3.7 S 19 26 10 14 1023.8 1023.7 0.0
20/11:30am 17.4 14.3 10.3 63 3.8 S 17 22 9 12 1024.1 1024.0 0.0
20/11:00am 17.3 14.3 9.2 59 4.2 S 15 22 8 12 1024.4 1024.3 0.0
20/10:30am 17.3 14.6 9.0 58 4.3 S 13 22 7 12 1024.3 1024.2 0.0
20/10:00am 17.0 14.8 9.2 60 4.0 S 11 17 6 9 1024.5 1024.4 0.0
20/09:30am 16.6 14.6 10.0 65 3.5 S 11 15 6 8 1024.5 1024.4 0.0
20/09:00am 15.4 12.6 8.6 64 3.4 SSW 13 17 7 9 1024.3 1024.2 0.0
20/08:30am 15.3 13.8 8.5 64 3.4 SW 6 9 3 5 1024.0 1023.9 0.0
20/08:00am 13.9 12.1 7.9 67 3.0 WSW 7 15 4 8 1023.8 1023.7 0.0
20/07:30am 12.8 10.5 7.5 70 2.6 W 9 15 5 8 1023.4 1023.3 0.0
20/07:00am 11.4 7.9 7.1 75 2.0 W 15 20 8 11 1023.0 1022.9 0.0
20/06:30am 10.5 6.2 7.0 79 1.7 W 19 22 10 12 1022.5 1022.4 0.0
20/06:00am 10.6 6.2 6.7 77 1.8 W 19 22 10 12 1021.9 1021.8 0.0
20/05:30am 10.6 6.3 6.9 78 1.8 W 19 22 10 12 1021.4 1021.3 0.0
20/05:00am 10.8 6.6 7.5 80 1.6 W 19 22 10 12 1020.9 1020.8 0.0
20/04:30am 11.2 7.2 6.7 74 2.1 W 17 20 9 11 1020.6 1020.5 0.0
20/04:00am 11.3 7.5 7.6 78 1.8 W 17 20 9 11 1020.4 1020.3 0.0
20/03:30am 11.5 7.5 6.8 73 2.2 W 17 19 9 10 1020.3 1020.2 0.0
20/03:00am 11.8 8.8 7.7 76 2.0 W 13 15 7 8 1020.4 1020.3 0.0
20/02:30am 11.7 9.0 7.2 74 2.2 WSW 11 15 6 8 1020.5 1020.4 0.0
20/02:00am 11.7 8.5 6.8 72 2.3 WSW 13 15 7 8 1020.8 1020.7 0.0
20/01:30am 11.9 8.7 6.8 71 2.4 WSW 13 15 7 8 1021.1 1021.0 0.0
20/01:00am 12.2 8.9 6.5 68 2.7 WSW 13 15 7 8 1021.3 1021.2 0.0
20/12:30am 12.6 10.1 6.4 66 2.9 WSW 9 11 5 6 1021.3 1021.2 0.0
20/12:00am 12.8 10.6 6.4 65 3.0 WSW 7 9 4 5 1021.4 1021.3 0.0
 
Date/Time
EST
Tmp

°C
App
Tmp
°C
Dew
Point
°C
Rel
Hum
%
Delta-T

°C
Wind Press
QNH
hPa
Press
MSL
hPa
Rain
since
9 am
mm
Dir
 
Spd
km/h
Gust
km/h
Spd
kts
Gust
kts
19/11:30pm 13.1 11.6 6.9 66 3.0 SW 4 6 2 3 1021.6 1021.5 0.0
19/11:00pm 13.1 11.2 6.5 64 3.1 WSW 6 7 3 4 1021.6 1021.5 0.0
19/10:30pm 13.3 11.7 6.4 63 3.3 SW 4 7 2 4 1021.7 1021.6 0.0
19/10:00pm 13.6 11.9 6.0 60 3.6 WSW 4 9 2 5 1021.7 1021.6 0.0
19/09:30pm 14.0 13.6 8.2 68 2.9 CALM 0 4 0 2 1021.6 1021.5 0.0
19/09:00pm 14.3 13.0 6.2 58 3.9 NW 2 6 1 3 1021.4 1021.3 0.0
19/08:30pm 14.0 12.0 6.4 60 3.7 NE 6 7 3 4 1021.2 1021.1 0.0
19/08:00pm 14.3 12.1 6.2 58 3.9 NE 7 9 4 5 1020.9 1020.8 0.0
19/07:30pm 14.2 11.6 6.1 58 3.9 NNE 9 11 5 6 1020.7 1020.6 0.0
19/07:00pm 14.4 11.6 7.0 61 3.6 NNE 11 15 6 8 1020.3 1020.2 0.0
19/06:30pm 14.4 11.1 6.3 58 3.9 NNE 13 15 7 8 1019.9 1019.8 0.0
19/06:00pm 14.6 11.1 5.4 54 4.3 NE 13 15 7 8 1019.5 1019.4 0.0
19/05:30pm 15.0 11.5 5.5 53 4.5 ENE 13 15 7 8 1019.3 1019.2 0.0
19/05:00pm 15.7 12.5 5.3 50 4.9 ENE 11 13 6 7 1019.2 1019.1 0.0
19/04:30pm 16.5 13.8 5.5 48 5.3 ENE 9 13 5 7 1019.1 1019.0 0.0
19/04:00pm 16.3 13.4 4.7 46 5.5 E 9 11 5 6 1019.0 1018.9 0.0
19/03:30pm 16.8 13.5 4.8 45 5.7 ESE 11 15 6 8 1018.9 1018.8 0.0
19/03:00pm 16.9 13.8 5.5 47 5.5 ESE 11 13 6 7 1019.0 1018.9 0.0
19/02:30pm 17.2 14.4 8.4 56 4.5 SE 13 17 7 9 1019.1 1019.0 0.0

Latest Capital City Observations: Canberra | Sydney | Melbourne | Brisbane | Adelaide | Perth | Hobart | Darwin

Other Formats:

Comma delimited format used in spreadsheet applications
http://www.bom.gov.au/fwo/IDN60901/IDN60901.95770.axf

JavaScript Object Notation format (JSON) in row-major order
http://www.bom.gov.au/fwo/IDN60901/IDN60901.95770.json